createdAt,value
2018-01-26T00:00:48.431Z,72.50
2018-01-26T00:03:17.891Z,73.14
2018-01-26T00:05:47.305Z,73.13
2018-01-26T00:08:19.471Z,73.58
2018-01-26T00:10:49.036Z,73.88
2018-01-26T00:13:18.157Z,74.10
2018-01-26T00:15:47.386Z,74.51
2018-01-26T00:18:16.790Z,75.85
2018-01-26T00:20:49.526Z,75.83
2018-01-26T00:23:18.625Z,76.41
2018-01-26T00:25:48.393Z,77.57
2018-01-26T00:28:17.546Z,76.90
2018-01-26T00:30:47.260Z,76.94
2018-01-26T00:33:16.764Z,77.12
2018-01-26T00:35:47.825Z,77.67
2018-01-26T00:38:17.037Z,77.42
2018-01-26T00:40:48.677Z,76.53
2018-01-26T00:43:17.918Z,77.26
2018-01-26T00:45:48.589Z,77.30
2018-01-26T00:48:18.242Z,77.51
2018-01-26T00:50:47.387Z,77.20
2018-01-26T00:53:16.634Z,77.40
2018-01-26T00:55:46.031Z,77.38
2018-01-26T00:58:15.130Z,77.13
2018-01-26T01:00:44.315Z,78.24
2018-01-26T01:03:13.728Z,78.10
2018-01-26T01:05:42.929Z,78.39
2018-01-26T01:08:12.067Z,78.64
2018-01-26T01:10:41.506Z,78.78
2018-01-26T01:13:10.653Z,78.86
2018-01-26T01:15:40.670Z,78.53
2018-01-26T01:18:10.115Z,79.11
2018-01-26T01:20:39.390Z,79.26
2018-01-26T01:23:08.654Z,79.41
2018-01-26T01:25:38.089Z,79.61
2018-01-26T01:28:07.270Z,79.76
2018-01-26T01:30:36.479Z,79.21
2018-01-26T01:33:05.981Z,79.55
2018-01-26T01:35:35.235Z,79.57
2018-01-26T01:38:05.496Z,79.28
2018-01-26T01:40:35.095Z,79.11
2018-01-26T01:43:04.882Z,79.11
2018-01-26T01:45:34.022Z,79.78
2018-01-26T01:48:03.998Z,79.24
2018-01-26T01:50:33.155Z,79.17
2018-01-26T01:53:02.598Z,79.17
2018-01-26T01:55:31.715Z,79.80
2018-01-26T01:58:00.885Z,80.36
2018-01-26T02:00:30.029Z,79.62
2018-01-26T02:02:59.154Z,79.33
2018-01-26T02:05:28.618Z,79.50
2018-01-26T02:07:57.831Z,79.31
2018-01-26T02:10:26.966Z,79.17
2018-01-26T02:12:56.437Z,79.17
2018-01-26T02:15:25.597Z,79.63
2018-01-26T02:17:55.579Z,79.73
2018-01-26T02:20:24.971Z,79.77
2018-01-26T02:22:54.086Z,80.22
2018-01-26T02:25:23.236Z,80.62
2018-01-26T02:27:52.718Z,81.04
2018-01-26T02:30:21.876Z,81.26
2018-01-26T02:32:50.988Z,81.02
2018-01-26T02:35:20.386Z,81.18
2018-01-26T02:37:49.835Z,80.89
2018-01-26T02:40:18.967Z,80.39
2018-01-26T02:42:48.435Z,80.68
2018-01-26T02:45:17.683Z,80.19
2018-01-26T02:47:46.796Z,80.05
2018-01-26T02:50:16.238Z,80.25
2018-01-26T02:52:45.389Z,81.02
2018-01-26T02:55:14.575Z,81.37
2018-01-26T02:57:45.020Z,81.88
2018-01-26T03:00:14.175Z,81.99
2018-01-26T03:02:43.312Z,81.96
2018-01-26T03:05:12.717Z,82.33
2018-01-26T03:07:41.902Z,82.55
2018-01-26T03:10:11.034Z,82.54
2018-01-26T03:12:41.049Z,81.95
2018-01-26T03:15:10.283Z,81.26
2018-01-26T03:17:39.410Z,81.29
2018-01-26T03:20:08.832Z,80.83
2018-01-26T03:22:38.109Z,81.41
2018-01-26T03:25:07.381Z,80.07
2018-01-26T03:27:39.496Z,79.94
2018-01-26T03:30:08.665Z,79.72
2018-01-26T03:32:37.939Z,79.56
2018-01-26T03:35:07.415Z,78.95
2018-01-26T03:37:36.707Z,78.30
2018-01-26T03:40:05.841Z,78.37
2018-01-26T03:42:35.596Z,78.51
2018-01-26T03:45:05.425Z,78.98
2018-01-26T03:47:34.691Z,77.94
2018-01-26T03:51:06.892Z,77.72
2018-01-26T03:53:36.155Z,78.68
2018-01-26T03:56:05.981Z,79.02
2018-01-26T03:58:35.366Z,77.06
2018-01-26T04:01:04.538Z,77.87
2018-01-26T04:03:34.213Z,76.74
2018-01-26T04:06:04.171Z,77.41
2018-01-26T04:08:33.338Z,78.28
2018-01-26T04:11:03.144Z,78.58
2018-01-26T04:13:32.410Z,78.67
2018-01-26T04:16:03.350Z,77.93
2018-01-26T04:18:32.788Z,77.31
2018-01-26T04:21:02.293Z,77.53
2018-01-26T04:23:31.419Z,78.08
2018-01-26T04:26:01.075Z,77.29
2018-01-26T04:28:30.168Z,78.03
2018-01-26T04:30:59.656Z,78.27
2018-01-26T04:33:28.790Z,78.06
2018-01-26T04:35:57.908Z,77.67
2018-01-26T04:38:27.294Z,78.16
2018-01-26T04:43:56.234Z,78.09
2018-01-26T04:46:25.493Z,78.12
2018-01-26T04:48:54.720Z,78.07
2018-01-26T04:51:23.845Z,78.30
2018-01-26T04:53:52.969Z,78.19
2018-01-26T04:56:22.087Z,77.73
2018-01-26T04:58:51.644Z,77.79
2018-01-26T05:01:20.759Z,77.70
2018-01-26T05:03:50.161Z,76.87
2018-01-26T05:06:19.594Z,76.09
2018-01-26T05:08:48.732Z,76.37
2018-01-26T05:11:17.868Z,76.47
2018-01-26T05:13:47.280Z,77.07
2018-01-26T05:16:16.435Z,77.55
2018-01-26T05:18:46.814Z,77.56
2018-01-26T05:21:17.256Z,77.57
2018-01-26T05:23:46.367Z,77.67
2018-01-26T05:26:15.490Z,77.23
2018-01-26T05:28:44.927Z,77.52
2018-01-26T05:31:14.124Z,77.51
2018-01-26T05:33:43.219Z,77.94
2018-01-26T05:36:12.920Z,77.94
2018-01-26T05:38:42.270Z,77.88
2018-01-26T05:41:11.426Z,77.55
2018-01-26T05:43:40.874Z,78.68
2018-01-26T05:46:10.034Z,78.45
2018-01-26T05:48:39.209Z,78.06
2018-01-26T05:51:08.727Z,78.60
2018-01-26T05:53:37.984Z,79.06
2018-01-26T05:56:07.467Z,79.31
2018-01-26T05:58:37.709Z,79.38
2018-01-26T06:01:07.298Z,79.31
2018-01-26T06:03:37.142Z,79.35
2018-01-26T06:06:06.631Z,79.70
2018-01-26T06:08:35.858Z,79.64
2018-01-26T06:11:05.000Z,79.28
2018-01-26T06:13:34.455Z,79.36
2018-01-26T06:16:04.544Z,79.85
2018-01-26T06:18:33.671Z,80.64
2018-01-26T06:21:03.540Z,79.94
2018-01-26T06:23:32.752Z,80.12
2018-01-26T06:26:02.927Z,80.25
2018-01-26T06:28:32.194Z,80.01
2018-01-26T06:31:02.558Z,79.05
2018-01-26T06:33:31.762Z,78.91
2018-01-26T06:36:01.499Z,79.41
2018-01-26T06:38:30.640Z,79.89
2018-01-26T06:40:59.777Z,80.08
2018-01-26T06:43:29.227Z,80.50
2018-01-26T06:45:58.916Z,80.44
2018-01-26T06:48:28.097Z,80.22
2018-01-26T06:50:57.520Z,80.27
2018-01-26T06:53:26.723Z,79.87
2018-01-26T06:55:55.858Z,80.28
2018-01-26T06:58:25.496Z,79.89
2018-01-26T07:00:54.682Z,79.90
2018-01-26T07:03:23.962Z,79.98
2018-01-26T07:05:53.420Z,79.93
2018-01-26T07:08:22.600Z,79.09
2018-01-26T07:10:51.924Z,79.17
2018-01-26T07:13:21.528Z,78.95
2018-01-26T07:15:51.141Z,79.00
2018-01-26T07:18:20.271Z,78.74
2018-01-26T07:20:50.394Z,78.90
2018-01-26T07:23:19.573Z,78.72
2018-01-26T07:25:48.735Z,78.86
2018-01-26T07:28:17.891Z,79.24
2018-01-26T07:30:48.745Z,78.64
2018-01-26T07:33:17.894Z,78.92
2018-01-26T07:35:47.090Z,79.03
2018-01-26T07:38:16.283Z,79.54
2018-01-26T07:40:45.608Z,79.58
2018-01-26T07:43:15.245Z,79.24
2018-01-26T07:45:45.780Z,78.42
2018-01-26T07:48:14.931Z,78.66
2018-01-26T07:50:47.131Z,78.21
2018-01-26T07:53:16.315Z,77.22
2018-01-26T07:55:49.422Z,77.02
2018-01-26T07:58:23.345Z,77.85
2018-01-26T08:00:53.122Z,77.70
2018-01-26T08:03:22.274Z,77.30
2018-01-26T08:05:51.711Z,76.74
2018-01-26T08:08:20.995Z,76.99
2018-01-26T08:10:50.194Z,76.88
2018-01-26T08:13:19.614Z,76.15
2018-01-26T08:15:48.990Z,75.73
2018-01-26T08:18:18.636Z,76.17
2018-01-26T08:20:48.104Z,75.74
2018-01-26T08:23:17.289Z,76.15
2018-01-26T08:25:46.443Z,75.22
2018-01-26T08:28:15.902Z,75.66
2018-01-26T08:30:45.057Z,75.63
2018-01-26T08:33:14.243Z,75.97
2018-01-26T08:35:45.060Z,75.51
2018-01-26T08:38:14.274Z,74.98
2018-01-26T08:40:43.440Z,75.12
2018-01-26T08:43:13.902Z,74.30
2018-01-26T08:45:43.060Z,74.74
2018-01-26T08:48:12.227Z,74.51
2018-01-26T08:50:41.722Z,74.46
2018-01-26T08:53:10.912Z,74.92
2018-01-26T08:55:40.240Z,74.18
2018-01-26T08:58:09.880Z,73.76
2018-01-26T09:00:40.651Z,73.59
2018-01-26T09:03:09.859Z,73.98
2018-01-26T09:05:39.361Z,74.39
2018-01-26T09:08:08.543Z,74.34
2018-01-26T09:10:37.925Z,74.65
2018-01-26T09:13:08.370Z,74.76
2018-01-26T09:15:37.747Z,74.49
2018-01-26T09:18:06.930Z,74.65
2018-01-26T09:20:36.519Z,75.09
2018-01-26T09:23:06.507Z,74.30
2018-01-26T09:25:35.916Z,73.68
2018-01-26T09:28:07.436Z,73.21
2018-01-26T09:30:38.275Z,73.38
2018-01-26T09:33:07.426Z,73.90
2018-01-26T09:35:37.069Z,72.88
2018-01-26T09:38:06.241Z,72.48
2018-01-26T09:40:35.698Z,71.87
2018-01-26T09:43:05.788Z,72.08
2018-01-26T09:45:35.016Z,71.37
2018-01-26T09:48:05.316Z,70.89
2018-01-26T09:50:35.309Z,71.20
2018-01-26T09:53:05.599Z,70.59
2018-01-26T09:55:34.794Z,70.11
2018-01-26T09:58:05.694Z,69.71
2018-01-26T10:00:35.423Z,68.93
2018-01-26T10:03:04.562Z,68.91
2018-01-26T10:05:33.767Z,68.81
2018-01-26T10:08:03.521Z,69.31
2018-01-26T10:10:33.008Z,69.28
2018-01-26T10:13:02.982Z,71.51
2018-01-26T10:15:32.223Z,71.10
2018-01-26T10:18:03.526Z,70.69
2018-01-26T10:20:32.695Z,70.73
2018-01-26T10:23:03.836Z,69.77
2018-01-26T10:25:33.012Z,69.48
2018-01-26T10:28:03.135Z,69.86
2018-01-26T10:30:32.799Z,69.82
2018-01-26T10:33:02.347Z,68.08
2018-01-26T10:35:31.577Z,68.53
2018-01-26T10:38:02.398Z,67.06
2018-01-26T10:40:31.589Z,67.78
2018-01-26T10:43:01.077Z,67.15
2018-01-26T10:45:30.592Z,68.24
2018-01-26T10:48:00.535Z,67.82
2018-01-26T10:50:29.767Z,67.38
2018-01-26T10:53:00.458Z,67.50
2018-01-26T10:55:29.784Z,67.23
2018-01-26T10:57:59.113Z,66.89
2018-01-26T11:00:28.755Z,67.24
2018-01-26T11:02:58.114Z,67.80
2018-01-26T11:05:27.422Z,68.15
2018-01-26T11:07:56.675Z,67.56
2018-01-26T11:10:26.124Z,67.31
2018-01-26T11:12:56.120Z,67.27
2018-01-26T11:15:25.588Z,67.02
2018-01-26T11:17:54.761Z,67.41
2018-01-26T11:20:24.219Z,67.03
2018-01-26T11:22:54.057Z,67.04
2018-01-26T11:25:23.429Z,67.08
2018-01-26T11:27:52.624Z,68.44
2018-01-26T11:30:22.228Z,68.53
2018-01-26T11:32:51.424Z,68.65
2018-01-26T11:35:20.736Z,68.82
2018-01-26T11:37:50.176Z,68.58
2018-01-26T11:40:19.418Z,68.73
2018-01-26T11:42:49.108Z,68.21
2018-01-26T11:45:18.752Z,69.11
2018-01-26T11:47:47.967Z,69.52
2018-01-26T11:50:17.196Z,69.07
2018-01-26T11:52:47.845Z,68.38
2018-01-26T11:55:17.074Z,69.53
2018-01-26T11:57:46.316Z,68.86
2018-01-26T12:00:15.899Z,69.44
2018-01-26T12:02:45.130Z,68.88
2018-01-26T12:05:17.647Z,68.83
2018-01-26T12:07:47.262Z,69.62
2018-01-26T12:10:17.030Z,70.37
2018-01-26T12:12:46.258Z,70.65
2018-01-26T12:15:15.924Z,70.56
2018-01-26T12:17:47.685Z,69.93
2018-01-26T12:20:17.264Z,69.86
2018-01-26T12:22:46.971Z,70.14
2018-01-26T12:25:16.314Z,70.08
2018-01-26T12:27:46.167Z,69.54
2018-01-26T12:30:16.538Z,68.69
2018-01-26T12:32:45.783Z,69.72
2018-01-26T12:35:15.048Z,68.96
2018-01-26T12:37:46.305Z,69.66
2018-01-26T12:40:17.085Z,69.30
2018-01-26T12:42:47.587Z,68.62
2018-01-26T12:45:17.404Z,69.59
2018-01-26T12:47:46.587Z,68.79
2018-01-26T12:50:15.713Z,68.74
2018-01-26T12:52:46.075Z,68.27
2018-01-26T12:55:15.334Z,68.60
2018-01-26T12:57:45.171Z,69.33
2018-01-26T13:00:15.163Z,69.25
2018-01-26T13:02:44.408Z,70.08
2018-01-26T13:05:13.747Z,71.02
2018-01-26T13:07:43.300Z,71.05
2018-01-26T13:10:12.828Z,70.74
2018-01-26T13:12:42.137Z,70.98
2018-01-26T13:15:11.798Z,71.30
2018-01-26T13:17:41.057Z,70.82
2018-01-26T13:20:10.400Z,71.38
2018-01-26T13:22:40.067Z,71.20
2018-01-26T13:25:09.246Z,70.90
2018-01-26T13:28:09.051Z,70.61
2018-01-26T13:30:38.746Z,70.80
2018-01-26T13:33:07.988Z,70.24
2018-01-26T13:35:37.370Z,70.81
2018-01-26T13:38:08.574Z,71.40
2018-01-26T13:40:39.418Z,70.60
2018-01-26T13:43:08.949Z,71.05
2018-01-26T13:45:40.726Z,70.95
2018-01-26T13:48:10.331Z,70.98
2018-01-26T13:50:39.706Z,71.13
2018-01-26T13:53:09.360Z,71.54
2018-01-26T13:55:39.082Z,68.94
2018-01-26T13:58:08.522Z,69.16
2018-01-26T14:00:38.433Z,69.86
2018-01-26T14:03:07.825Z,69.85
2018-01-26T14:05:37.448Z,70.95
2018-01-26T14:08:07.208Z,70.95
2018-01-26T14:10:36.965Z,70.02
2018-01-26T14:13:06.896Z,71.22
2018-01-26T14:15:36.896Z,71.92
2018-01-26T14:18:06.683Z,71.82
2018-01-26T14:20:36.928Z,72.48
2018-01-26T14:23:06.507Z,72.41
2018-01-26T14:25:36.121Z,72.91
2018-01-26T14:28:06.197Z,71.85
2018-01-26T14:30:36.376Z,72.09
2018-01-26T14:33:05.941Z,72.28
2018-01-26T14:35:36.269Z,71.42
2018-01-26T14:38:06.969Z,71.69
2018-01-26T14:40:36.676Z,71.66
2018-01-26T14:43:06.072Z,71.82
2018-01-26T14:45:36.072Z,72.04
2018-01-26T14:48:05.853Z,71.83
2018-01-26T14:50:36.687Z,71.89
2018-01-26T14:53:07.310Z,72.12
2018-01-26T14:55:37.277Z,72.06
2018-01-26T14:58:06.889Z,72.34
2018-01-26T15:00:36.683Z,72.76
2018-01-26T15:03:06.113Z,72.94
2018-01-26T15:05:35.588Z,72.11
2018-01-26T15:08:06.298Z,72.72
2018-01-26T15:10:35.636Z,73.01
2018-01-26T15:13:05.706Z,72.99
2018-01-26T15:15:35.593Z,72.42
2018-01-26T15:18:06.264Z,72.82
2018-01-26T15:20:35.731Z,72.38
2018-01-26T15:23:06.160Z,72.77
2018-01-26T15:25:35.788Z,72.70
2018-01-26T15:28:06.446Z,72.63
2018-01-26T15:30:36.530Z,72.48
2018-01-26T15:33:06.930Z,72.86
2018-01-26T15:35:37.059Z,73.38
2018-01-26T15:38:07.706Z,73.25
2018-01-26T15:40:38.624Z,73.47
2018-01-26T15:43:08.808Z,73.74
2018-01-26T15:45:38.827Z,73.88
2018-01-26T15:48:08.963Z,74.40
2018-01-26T15:50:40.118Z,73.85
2018-01-26T15:53:10.563Z,73.39
2018-01-26T15:55:40.247Z,73.83
2018-01-26T15:58:10.187Z,73.83
2018-01-26T16:00:42.703Z,73.34
2018-01-26T16:03:12.165Z,73.54
2018-01-26T16:05:41.951Z,74.04
2018-01-26T16:08:11.230Z,74.08
2018-01-26T16:10:42.120Z,73.79
2018-01-26T16:13:11.718Z,74.06
2018-01-26T16:15:47.659Z,73.96
2018-01-26T16:18:17.676Z,74.40
2018-01-26T16:20:46.990Z,74.33
2018-01-26T16:23:16.501Z,74.68
2018-01-26T16:25:46.023Z,75.13
2018-01-26T16:28:15.357Z,75.04
2018-01-26T16:30:44.662Z,75.52
2018-01-26T16:33:15.306Z,75.65
2018-01-26T16:35:44.499Z,75.14
2018-01-26T16:38:14.013Z,75.38
2018-01-26T16:40:45.115Z,75.68
2018-01-26T16:43:14.396Z,75.88
2018-01-26T16:45:44.730Z,75.15
2018-01-26T16:48:14.314Z,75.12
2018-01-26T16:50:43.679Z,75.68
2018-01-26T16:53:12.974Z,75.81
2018-01-26T16:55:44.720Z,76.22
2018-01-26T16:58:13.931Z,76.06
2018-01-26T17:00:44.159Z,76.38
2018-01-26T17:03:13.848Z,76.55
2018-01-26T17:05:43.296Z,76.50
2018-01-26T17:08:12.601Z,76.80
2018-01-26T17:10:42.304Z,76.94
2018-01-26T17:13:11.574Z,76.73
2018-01-26T17:15:42.284Z,75.86
2018-01-26T17:18:12.631Z,76.07
2018-01-26T17:20:41.864Z,75.97
2018-01-26T17:23:11.255Z,75.07
2018-01-26T17:25:43.003Z,74.62
2018-01-26T17:28:12.326Z,74.18
2018-01-26T17:30:42.627Z,74.12
2018-01-26T17:33:12.253Z,74.20
2018-01-26T17:35:41.562Z,73.89
2018-01-26T17:38:11.073Z,73.59
2018-01-26T17:40:41.227Z,73.52
2018-01-26T17:43:10.447Z,73.65
2018-01-26T17:45:41.315Z,74.30
2018-01-26T17:48:10.627Z,75.00
2018-01-26T17:50:41.950Z,74.64
2018-01-26T17:53:11.141Z,74.84
2018-01-26T17:55:40.615Z,75.27
2018-01-26T17:58:10.123Z,74.73
2018-01-26T18:00:39.750Z,75.13
2018-01-26T18:03:09.268Z,74.69
2018-01-26T18:05:42.405Z,72.76
2018-01-26T18:08:11.571Z,72.37
2018-01-26T18:10:43.639Z,70.92
2018-01-26T18:13:13.124Z,71.01
2018-01-26T18:15:42.692Z,71.63
2018-01-26T18:18:11.850Z,71.89
2018-01-26T18:20:41.083Z,71.98
2018-01-26T18:23:11.552Z,71.85
2018-01-26T18:25:46.634Z,71.88
2018-01-26T18:28:15.936Z,72.28
2018-01-26T18:30:45.411Z,71.87
2018-01-26T18:33:14.770Z,71.11
2018-01-26T18:35:44.763Z,71.34
2018-01-26T18:38:14.039Z,71.82
2018-01-26T18:40:44.887Z,71.61
2018-01-26T18:43:14.440Z,71.75
2018-01-26T18:45:43.592Z,70.83
2018-01-26T18:48:12.876Z,70.89
2018-01-26T18:50:42.116Z,70.82
2018-01-26T18:53:11.286Z,70.67
2018-01-26T18:55:40.746Z,70.46
2018-01-26T18:58:09.972Z,70.62
2018-01-26T19:00:41.911Z,71.47
2018-01-26T19:03:11.504Z,71.99
2018-01-26T19:05:40.806Z,71.61
2018-01-26T19:08:11.313Z,71.89
2018-01-26T19:10:40.511Z,73.17
2018-01-26T19:13:09.691Z,72.63
2018-01-26T19:15:38.944Z,72.33
2018-01-26T19:18:08.344Z,72.31
2018-01-26T19:20:37.912Z,72.70
2018-01-26T19:23:07.226Z,72.88
2018-01-26T19:25:37.572Z,73.42
2018-01-26T19:28:08.278Z,74.12
2018-01-26T19:30:37.700Z,74.66
2018-01-26T19:33:07.139Z,75.13
2018-01-26T19:35:36.770Z,75.55
2018-01-26T19:38:06.129Z,75.57
2018-01-26T19:40:35.627Z,75.90
2018-01-26T19:43:06.887Z,76.28
2018-01-26T19:45:36.170Z,76.22
2018-01-26T19:48:07.521Z,76.36
2018-01-26T19:50:37.586Z,76.77
2018-01-26T19:53:06.926Z,76.96
2018-01-26T19:55:37.681Z,77.17
2018-01-26T19:58:12.595Z,77.58
2018-01-26T20:00:47.083Z,77.80
2018-01-26T20:03:25.058Z,78.22
2018-01-26T20:05:58.686Z,78.69
2018-01-26T20:08:33.532Z,79.46
2018-01-26T20:11:04.460Z,79.92
2018-01-26T20:13:33.684Z,80.13
2018-01-26T20:16:04.420Z,80.29
2018-01-26T20:18:34.965Z,80.66
2018-01-26T20:21:04.844Z,80.64
2018-01-26T20:23:34.234Z,80.58
2018-01-26T20:26:05.039Z,80.85
2018-01-26T20:28:37.020Z,80.96
2018-01-26T20:31:06.454Z,80.94
2018-01-26T20:33:35.648Z,81.15
2018-01-26T20:36:05.942Z,81.12
2018-01-26T20:38:35.123Z,80.86
2018-01-26T20:41:05.091Z,81.03
2018-01-26T20:43:34.338Z,80.93
2018-01-26T20:46:05.218Z,80.75
2018-01-26T20:48:34.649Z,80.99
2018-01-26T20:51:05.062Z,81.04
2018-01-26T20:53:34.328Z,81.07
2018-01-26T20:56:04.921Z,81.19
2018-01-26T20:58:34.110Z,80.63
2018-01-26T21:01:05.769Z,80.74
2018-01-26T21:03:35.009Z,80.70
2018-01-26T21:06:06.586Z,80.70
2018-01-26T21:08:36.031Z,80.95
2018-01-26T21:11:05.624Z,80.82
2018-01-26T21:13:35.085Z,80.70
2018-01-26T21:16:05.906Z,80.90
2018-01-26T21:18:35.532Z,80.65
2018-01-26T21:21:04.954Z,81.01
2018-01-26T21:23:34.192Z,80.78
2018-01-26T21:26:04.793Z,80.80
2018-01-26T21:28:33.951Z,80.63
2018-01-26T21:31:04.504Z,80.71
2018-01-26T21:33:33.755Z,80.48
2018-01-26T21:36:05.487Z,80.72
2018-01-26T21:38:34.844Z,80.75
2018-01-26T21:41:04.519Z,80.78
2018-01-26T21:43:33.721Z,80.45
2018-01-26T21:46:03.675Z,80.73
2018-01-26T21:48:33.153Z,80.64
2018-01-26T21:51:02.745Z,80.66
2018-01-26T21:53:35.816Z,80.71
2018-01-26T21:56:06.636Z,80.47
2018-01-26T21:58:35.989Z,80.42
2018-01-26T22:01:06.128Z,80.11
2018-01-26T22:03:35.694Z,79.76
2018-01-26T22:06:11.202Z,79.34
2018-01-26T22:08:40.483Z,78.96
2018-01-26T22:11:09.754Z,78.72
2018-01-26T22:13:39.359Z,78.33
2018-01-26T22:16:08.922Z,77.84
2018-01-26T22:18:38.287Z,77.87
2018-01-26T22:21:07.498Z,77.66
2018-01-26T22:23:37.030Z,77.39
2018-01-26T22:26:06.211Z,77.73
2018-01-26T22:28:35.520Z,77.96
2018-01-26T22:31:05.249Z,77.72
2018-01-26T22:33:34.376Z,77.94
2018-01-26T22:36:04.816Z,77.74
2018-01-26T22:38:34.407Z,77.89
2018-01-26T22:41:04.229Z,77.52
2018-01-26T22:43:34.052Z,77.29
2018-01-26T22:46:06.414Z,77.07
2018-01-26T22:48:35.674Z,76.92
2018-01-26T22:51:05.211Z,76.66
2018-01-26T22:53:35.700Z,76.71
2018-01-26T22:56:05.655Z,77.39
2018-01-26T22:58:35.195Z,77.36
2018-01-26T23:01:04.872Z,77.02
2018-01-26T23:03:34.030Z,77.23
2018-01-26T23:06:04.399Z,76.89
2018-01-26T23:08:33.856Z,77.14
2018-01-26T23:11:04.547Z,76.98
2018-01-26T23:13:33.887Z,77.11
2018-01-26T23:16:03.841Z,77.25
2018-01-26T23:18:32.974Z,77.33
2018-01-26T23:21:02.540Z,77.15
2018-01-26T23:23:32.107Z,77.17
2018-01-26T23:26:01.392Z,77.41
2018-01-26T23:28:31.088Z,77.52
2018-01-26T23:31:01.041Z,77.60
2018-01-26T23:33:31.748Z,78.04
2018-01-26T23:36:02.856Z,78.32
2018-01-26T23:38:32.513Z,78.45
2018-01-26T23:41:02.115Z,78.37
2018-01-26T23:43:34.733Z,78.70
2018-01-26T23:46:06.925Z,78.73
2018-01-26T23:48:36.310Z,78.92
2018-01-26T23:51:06.540Z,79.24
2018-01-26T23:53:36.787Z,79.37
2018-01-26T23:56:06.459Z,79.21
2018-01-26T23:58:37.098Z,79.21
